createdAt,value
2018-10-07T00:02:29.118Z,68.26
2018-10-07T00:04:58.734Z,68.47
2018-10-07T00:07:28.373Z,67.77
2018-10-07T00:09:57.880Z,68.26
2018-10-07T00:12:27.423Z,68.44
2018-10-07T00:14:56.882Z,69.00
2018-10-07T00:17:26.761Z,69.25
2018-10-07T00:19:56.273Z,68.97
2018-10-07T00:22:25.768Z,69.87
2018-10-07T00:24:55.282Z,70.41
2018-10-07T00:27:24.783Z,70.41
2018-10-07T00:29:54.329Z,70.79
2018-10-07T00:32:23.841Z,70.97
2018-10-07T00:34:53.690Z,70.02
2018-10-07T00:37:23.245Z,71.21
2018-10-07T00:39:52.800Z,70.65
2018-10-07T00:42:22.308Z,70.90
2018-10-07T00:44:51.782Z,70.69
2018-10-07T00:47:21.811Z,70.36
2018-10-07T00:49:51.950Z,70.67
2018-10-07T00:52:22.482Z,70.93
2018-10-07T00:54:52.455Z,71.93
2018-10-07T00:57:21.976Z,72.10
2018-10-07T00:59:52.003Z,72.14
2018-10-07T01:02:21.593Z,72.16
2018-10-07T01:04:51.268Z,72.43
2018-10-07T01:07:21.172Z,71.45
2018-10-07T01:09:50.811Z,72.44
2018-10-07T01:12:20.344Z,72.60
2018-10-07T01:14:49.838Z,73.20
2018-10-07T01:17:19.394Z,72.25
2018-10-07T01:19:48.969Z,72.52
2018-10-07T01:22:18.569Z,72.85
2018-10-07T01:24:48.120Z,72.57
2018-10-07T01:27:17.639Z,72.73
2018-10-07T01:29:47.165Z,73.29
2018-10-07T01:35:13.616Z,73.57
2018-10-07T01:37:43.305Z,73.89
2018-10-07T01:40:12.787Z,74.93
2018-10-07T01:42:42.343Z,73.76
2018-10-07T01:45:11.838Z,74.18
2018-10-07T01:47:41.829Z,74.89
2018-10-07T01:50:11.309Z,74.91
2018-10-07T01:52:41.178Z,74.87
2018-10-07T01:55:10.775Z,74.94
2018-10-07T01:57:40.330Z,74.83
2018-10-07T02:00:10.224Z,75.21
2018-10-07T02:02:39.767Z,75.17
2018-10-07T02:05:09.312Z,74.98
2018-10-07T02:07:39.325Z,75.22
2018-10-07T02:10:09.257Z,76.17
2018-10-07T02:12:38.827Z,75.84
2018-10-07T02:15:08.335Z,75.99
2018-10-07T02:17:37.863Z,75.64
2018-10-07T02:20:07.386Z,75.46
2018-10-07T02:22:37.196Z,75.09
2018-10-07T02:25:07.130Z,75.78
2018-10-07T02:27:36.678Z,75.34
2018-10-07T02:30:07.211Z,74.88
2018-10-07T02:32:36.753Z,75.13
2018-10-07T02:35:06.296Z,75.27
2018-10-07T02:37:35.817Z,74.51
2018-10-07T02:40:05.522Z,74.78
2018-10-07T02:42:35.019Z,74.62
2018-10-07T02:45:04.832Z,75.16
2018-10-07T02:47:35.073Z,74.84
2018-10-07T02:50:20.437Z,75.53
2018-10-07T02:52:53.973Z,75.11
2018-10-07T02:55:27.216Z,74.18
2018-10-07T02:57:58.285Z,74.80
2018-10-07T03:00:27.840Z,74.19
2018-10-07T03:02:57.458Z,74.45
2018-10-07T03:05:26.969Z,74.82
2018-10-07T03:07:56.510Z,75.04
2018-10-07T03:10:25.976Z,75.32
2018-10-07T03:12:55.810Z,74.94
2018-10-07T03:15:25.532Z,75.49
2018-10-07T03:17:55.035Z,75.09
2018-10-07T03:20:24.599Z,75.21
2018-10-07T03:22:54.108Z,74.62
2018-10-07T03:25:23.594Z,75.08
2018-10-07T03:27:53.149Z,75.43
2018-10-07T03:30:22.658Z,75.14
2018-10-07T03:32:52.792Z,75.96
2018-10-07T03:35:22.324Z,77.44
2018-10-07T03:37:52.011Z,77.65
2018-10-07T03:40:21.539Z,77.37
2018-10-07T03:42:51.146Z,76.99
2018-10-07T03:45:20.721Z,76.94
2018-10-07T03:47:50.234Z,78.38
2018-10-07T03:50:19.896Z,78.04
2018-10-07T03:52:49.822Z,78.29
2018-10-07T03:55:19.346Z,78.89
2018-10-07T03:57:48.960Z,79.61
2018-10-07T04:00:18.831Z,79.01
2018-10-07T04:02:48.352Z,79.44
2018-10-07T04:05:17.879Z,79.73
2018-10-07T04:07:47.680Z,80.10
2018-10-07T04:10:17.614Z,78.56
2018-10-07T04:12:47.152Z,78.93
2018-10-07T04:15:16.678Z,78.18
2018-10-07T04:17:46.193Z,78.01
2018-10-07T04:20:15.794Z,78.01
2018-10-07T04:22:45.285Z,77.88
2018-10-07T04:25:14.869Z,78.07
2018-10-07T04:27:44.351Z,77.48
2018-10-07T04:30:13.941Z,78.50
2018-10-07T04:32:43.951Z,78.47
2018-10-07T04:35:13.475Z,78.42
2018-10-07T04:37:43.011Z,78.57
2018-10-07T04:40:12.559Z,79.01
2018-10-07T04:42:42.078Z,79.45
2018-10-07T04:45:11.645Z,79.34
2018-10-07T04:47:41.148Z,80.16
2018-10-07T04:50:10.667Z,79.93
2018-10-07T04:52:40.287Z,78.17
2018-10-07T04:55:09.791Z,78.37
2018-10-07T04:57:39.521Z,77.54
2018-10-07T05:00:09.110Z,77.45
2018-10-07T05:02:39.494Z,76.79
2018-10-07T05:05:09.084Z,77.32
2018-10-07T05:07:38.810Z,77.26
2018-10-07T05:10:41.871Z,77.72
2018-10-07T05:13:11.757Z,77.53
2018-10-07T05:15:41.694Z,78.07
2018-10-07T05:18:11.602Z,77.80
2018-10-07T05:20:41.126Z,77.81
2018-10-07T05:23:10.657Z,76.97
2018-10-07T05:25:40.340Z,76.31
2018-10-07T05:28:10.208Z,76.91
2018-10-07T05:30:40.354Z,76.41
2018-10-07T05:33:09.862Z,76.22
2018-10-07T05:35:39.631Z,76.42
2018-10-07T05:38:09.297Z,76.43
2018-10-07T05:40:38.773Z,75.91
2018-10-07T05:43:08.326Z,76.07
2018-10-07T05:45:37.871Z,75.89
2018-10-07T05:48:07.544Z,75.97
2018-10-07T05:50:37.362Z,76.16
2018-10-07T05:53:07.104Z,76.09
2018-10-07T05:55:36.633Z,75.79
2018-10-07T05:58:06.758Z,75.53
2018-10-07T06:00:37.539Z,75.65
2018-10-07T06:04:23.831Z,75.74
2018-10-07T06:06:56.324Z,75.94
2018-10-07T06:09:28.982Z,75.67
2018-10-07T06:11:58.710Z,76.23
2018-10-07T06:14:45.284Z,75.43
2018-10-07T06:17:15.245Z,75.34
2018-10-07T06:19:45.329Z,76.05
2018-10-07T06:22:15.502Z,75.72
2018-10-07T06:24:45.051Z,76.37
2018-10-07T06:27:14.578Z,75.97
2018-10-07T06:29:44.100Z,76.29
2018-10-07T06:32:13.826Z,75.97
2018-10-07T06:34:43.375Z,76.21
2018-10-07T06:37:12.916Z,76.37
2018-10-07T06:39:42.764Z,75.92
2018-10-07T06:42:12.792Z,75.73
2018-10-07T06:44:42.317Z,76.09
2018-10-07T06:47:12.196Z,75.72
2018-10-07T06:49:41.702Z,74.72
2018-10-07T06:52:11.586Z,74.47
2018-10-07T06:54:41.087Z,74.22
2018-10-07T06:57:11.058Z,74.26
2018-10-07T06:59:40.611Z,72.60
2018-10-07T07:02:10.225Z,71.08
2018-10-07T07:04:39.739Z,70.17
2018-10-07T07:07:09.652Z,70.02
2018-10-07T07:09:39.186Z,70.16
2018-10-07T07:12:08.707Z,70.08
2018-10-07T07:14:38.248Z,69.77
2018-10-07T07:17:08.174Z,68.44
2018-10-07T07:19:37.726Z,66.97
2018-10-07T07:22:07.825Z,67.17
2018-10-07T07:24:37.585Z,67.06
2018-10-07T07:27:07.252Z,66.63
2018-10-07T07:29:36.802Z,66.42
2018-10-07T07:32:06.295Z,66.91
2018-10-07T07:34:36.157Z,66.55
2018-10-07T07:37:05.754Z,66.74
2018-10-07T07:39:35.287Z,66.10
2018-10-07T07:42:04.812Z,66.92
2018-10-07T07:44:34.286Z,66.36
2018-10-07T07:47:03.820Z,66.97
2018-10-07T07:49:33.325Z,65.58
2018-10-07T07:52:02.893Z,66.16
2018-10-07T07:54:32.394Z,66.03
2018-10-07T07:57:01.975Z,65.73
2018-10-07T07:59:31.448Z,65.57
2018-10-07T08:02:00.983Z,65.88
2018-10-07T08:04:30.457Z,65.17
2018-10-07T08:06:59.968Z,65.92
2018-10-07T08:09:29.427Z,65.46
2018-10-07T08:11:58.907Z,65.02
2018-10-07T08:14:28.417Z,64.12
2018-10-07T08:16:58.426Z,64.32
2018-10-07T08:19:27.938Z,63.86
2018-10-07T08:21:57.432Z,64.33
2018-10-07T08:24:26.974Z,64.21
2018-10-07T08:26:56.997Z,63.97
2018-10-07T08:29:26.580Z,64.11
2018-10-07T08:31:56.295Z,63.82
2018-10-07T08:34:25.896Z,63.73
2018-10-07T08:36:55.424Z,63.59
2018-10-07T08:39:24.975Z,63.65
2018-10-07T08:41:54.587Z,63.31
2018-10-07T08:44:24.354Z,63.47
2018-10-07T08:46:53.856Z,62.94
2018-10-07T08:49:23.391Z,63.25
2018-10-07T08:51:53.099Z,63.42
2018-10-07T08:54:22.660Z,63.20
2018-10-07T08:56:52.375Z,62.48
2018-10-07T08:59:21.872Z,61.87
2018-10-07T09:01:51.772Z,61.60
2018-10-07T09:04:21.248Z,61.03
2018-10-07T09:06:51.108Z,61.59
2018-10-07T09:09:20.621Z,60.20
2018-10-07T09:11:50.195Z,60.71
2018-10-07T09:14:19.710Z,59.94
2018-10-07T09:16:49.258Z,60.68
2018-10-07T09:19:18.746Z,59.23
2018-10-07T09:21:48.266Z,58.16
2018-10-07T09:24:17.837Z,57.65
2018-10-07T09:26:47.405Z,57.97
2018-10-07T09:29:17.067Z,57.99
2018-10-07T09:31:48.508Z,58.87
2018-10-07T09:34:18.018Z,58.12
2018-10-07T09:36:47.584Z,58.41
2018-10-07T09:39:17.301Z,56.90
2018-10-07T09:41:47.008Z,56.83
2018-10-07T09:44:16.537Z,57.10
2018-10-07T09:46:46.571Z,56.83
2018-10-07T09:49:16.133Z,56.17
2018-10-07T09:51:45.633Z,55.67
2018-10-07T09:54:15.206Z,55.46
2018-10-07T09:56:44.696Z,55.17
2018-10-07T09:59:14.203Z,55.62
2018-10-07T10:01:43.755Z,55.56
2018-10-07T10:04:13.655Z,55.64
2018-10-07T10:06:43.302Z,56.03
2018-10-07T10:09:12.805Z,54.79
2018-10-07T10:11:42.263Z,55.56
2018-10-07T10:14:12.175Z,52.90
2018-10-07T10:16:46.459Z,52.57
2018-10-07T10:19:24.885Z,53.96
2018-10-07T10:22:15.566Z,52.03
2018-10-07T10:25:31.086Z,52.05
2018-10-07T10:28:09.877Z,51.17
2018-10-07T10:31:02.927Z,51.52
2018-10-07T10:33:35.870Z,51.03
2018-10-07T10:37:20.872Z,50.83
2018-10-07T10:40:03.107Z,50.88
2018-10-07T10:42:46.937Z,49.41
2018-10-07T10:45:30.515Z,51.41
2018-10-07T10:49:20.045Z,50.40
2018-10-07T10:53:09.317Z,50.73
2018-10-07T10:56:19.152Z,49.74
2018-10-07T10:59:05.030Z,50.25
2018-10-07T11:02:57.213Z,50.84
2018-10-07T11:05:40.314Z,50.90
2018-10-07T11:08:38.164Z,50.66
2018-10-07T11:11:18.829Z,50.81
2018-10-07T11:14:07.168Z,51.11
2018-10-07T11:16:58.659Z,51.31
2018-10-07T11:19:50.320Z,50.30
2018-10-07T11:24:39.511Z,50.64
2018-10-07T11:27:53.877Z,50.54
2018-10-07T11:30:50.463Z,49.47
2018-10-07T11:33:43.049Z,49.62
2018-10-07T11:36:36.225Z,48.53
2018-10-07T11:39:19.081Z,49.83
2018-10-07T11:42:04.763Z,48.72
2018-10-07T11:45:13.711Z,48.33
2018-10-07T11:47:58.702Z,48.85
2018-10-07T11:50:50.941Z,48.50
2018-10-07T11:53:30.535Z,48.67
2018-10-07T11:56:00.066Z,47.93
2018-10-07T11:58:29.618Z,48.36
2018-10-07T12:01:02.135Z,48.95
2018-10-07T12:03:34.800Z,48.93
2018-10-07T12:06:08.074Z,47.78
2018-10-07T12:08:41.042Z,48.38
2018-10-07T12:11:12.538Z,48.05
2018-10-07T12:13:43.945Z,48.73
2018-10-07T12:16:15.664Z,48.91
2018-10-07T12:18:46.213Z,48.66
2018-10-07T12:21:15.730Z,48.85
2018-10-07T12:23:45.257Z,48.55
2018-10-07T12:26:14.751Z,49.38
2018-10-07T12:28:44.410Z,48.54
2018-10-07T12:31:13.947Z,48.75
2018-10-07T12:33:43.664Z,48.94
2018-10-07T12:36:16.087Z,48.84
2018-10-07T12:38:48.938Z,48.68
2018-10-07T12:41:21.780Z,48.30
2018-10-07T12:43:54.228Z,48.66
2018-10-07T12:46:26.963Z,47.53
2018-10-07T12:49:00.034Z,47.78
2018-10-07T12:51:33.058Z,47.98
2018-10-07T12:54:05.708Z,48.13
2018-10-07T12:56:37.394Z,48.48
2018-10-07T12:59:09.693Z,47.89
2018-10-07T13:01:39.340Z,48.44
2018-10-07T13:04:10.885Z,47.98
2018-10-07T13:06:42.316Z,47.65
2018-10-07T13:09:13.373Z,47.97
2018-10-07T13:11:44.753Z,48.00
2018-10-07T13:14:16.359Z,47.61
2018-10-07T13:16:47.981Z,47.20
2018-10-07T13:19:18.587Z,47.62
2018-10-07T13:21:52.060Z,47.39
2018-10-07T13:24:25.276Z,47.17
2018-10-07T13:26:57.522Z,46.52
2018-10-07T13:29:30.486Z,46.98
2018-10-07T13:32:03.421Z,47.05
2018-10-07T13:34:33.136Z,47.62
2018-10-07T13:37:02.690Z,47.66
2018-10-07T13:39:32.221Z,47.46
2018-10-07T13:42:01.755Z,47.09
2018-10-07T13:44:31.880Z,47.57
2018-10-07T13:47:01.371Z,47.09
2018-10-07T13:49:30.893Z,46.69
2018-10-07T13:52:00.514Z,46.75
2018-10-07T13:54:30.018Z,46.14
2018-10-07T13:56:59.738Z,47.45
2018-10-07T13:59:29.242Z,46.11
2018-10-07T14:01:58.829Z,46.07
2018-10-07T14:04:28.457Z,47.58
2018-10-07T14:06:58.101Z,47.79
2018-10-07T14:09:27.640Z,46.88
2018-10-07T14:11:57.854Z,47.36
2018-10-07T14:14:27.764Z,47.16
2018-10-07T14:16:57.271Z,46.51
2018-10-07T14:19:26.779Z,46.02
2018-10-07T14:21:56.459Z,47.13
2018-10-07T14:24:26.038Z,46.18
2018-10-07T14:26:55.575Z,46.70
2018-10-07T14:29:25.184Z,46.45
2018-10-07T14:31:54.727Z,46.82
2018-10-07T14:34:24.303Z,47.13
2018-10-07T14:36:53.860Z,46.67
2018-10-07T14:39:23.453Z,46.50
2018-10-07T14:41:53.110Z,46.58
2018-10-07T14:44:22.641Z,46.26
2018-10-07T14:46:52.181Z,46.46
2018-10-07T14:49:23.002Z,46.63
2018-10-07T14:51:52.707Z,46.72
2018-10-07T14:54:22.327Z,47.36
2018-10-07T14:56:51.855Z,47.06
2018-10-07T14:59:21.921Z,47.45
2018-10-07T15:01:51.637Z,46.53
2018-10-07T15:04:21.336Z,46.88
2018-10-07T15:06:51.293Z,46.06
2018-10-07T15:09:20.916Z,46.97
2018-10-07T15:11:50.410Z,47.58
2018-10-07T15:14:19.995Z,47.31
2018-10-07T15:16:49.520Z,47.33
2018-10-07T15:19:19.027Z,47.13
2018-10-07T15:21:48.768Z,46.80
2018-10-07T15:24:18.382Z,46.81
2018-10-07T15:26:47.894Z,46.75
2018-10-07T15:29:17.439Z,46.71
2018-10-07T15:31:47.243Z,47.96
2018-10-07T15:34:17.110Z,47.50
2018-10-07T15:36:46.681Z,47.72
2018-10-07T15:39:16.242Z,47.52
2018-10-07T15:41:46.104Z,46.65
2018-10-07T15:44:15.612Z,47.14
2018-10-07T15:46:45.155Z,47.49
2018-10-07T15:49:14.735Z,47.77
2018-10-07T15:51:44.331Z,47.65
2018-10-07T15:54:13.834Z,47.91
2018-10-07T15:56:43.494Z,47.56
2018-10-07T15:59:13.129Z,47.83
2018-10-07T16:01:42.820Z,48.02
2018-10-07T16:04:12.327Z,47.68
2018-10-07T16:06:41.829Z,48.33
2018-10-07T16:09:11.607Z,48.04
2018-10-07T16:11:41.094Z,48.88
2018-10-07T16:14:10.651Z,48.87
2018-10-07T16:16:40.625Z,49.35
2018-10-07T16:19:10.129Z,48.55
2018-10-07T16:21:40.002Z,48.79
2018-10-07T16:24:09.579Z,48.91
2018-10-07T16:26:39.379Z,49.33
2018-10-07T16:29:15.621Z,49.49
2018-10-07T16:31:45.185Z,48.83
2018-10-07T16:34:14.682Z,49.88
2018-10-07T16:39:27.297Z,49.55
2018-10-07T16:41:56.850Z,49.63
2018-10-07T16:44:26.368Z,49.52
2018-10-07T16:46:56.210Z,49.60
2018-10-07T16:49:25.783Z,49.37
2018-10-07T16:51:55.293Z,49.70
2018-10-07T16:54:24.828Z,49.74
2018-10-07T16:56:54.333Z,50.41
2018-10-07T16:59:23.925Z,50.53
2018-10-07T17:01:53.749Z,50.50
2018-10-07T17:04:23.365Z,49.98
2018-10-07T17:06:53.247Z,50.20
2018-10-07T17:09:22.721Z,50.45
2018-10-07T17:11:52.227Z,50.86
2018-10-07T17:14:21.736Z,50.43
2018-10-07T17:16:51.335Z,50.65
2018-10-07T17:19:20.867Z,51.01
2018-10-07T17:21:50.385Z,50.07
2018-10-07T17:24:19.922Z,50.74
2018-10-07T17:26:49.602Z,51.16
2018-10-07T17:29:19.133Z,50.66
2018-10-07T17:31:48.667Z,50.89
2018-10-07T17:34:18.136Z,51.02
2018-10-07T17:36:47.644Z,50.94
2018-10-07T17:39:17.170Z,51.39
2018-10-07T17:41:46.717Z,51.59
2018-10-07T17:44:16.199Z,52.54
2018-10-07T17:46:47.012Z,53.37
2018-10-07T17:49:16.707Z,53.19
2018-10-07T17:51:46.168Z,54.11
2018-10-07T17:54:15.750Z,53.96
2018-10-07T17:56:45.299Z,54.53
2018-10-07T17:59:14.891Z,54.52
2018-10-07T18:01:44.467Z,54.71
2018-10-07T18:04:14.587Z,55.60
2018-10-07T18:06:44.511Z,56.18
2018-10-07T18:09:14.085Z,56.85
2018-10-07T18:11:43.759Z,57.25
2018-10-07T18:14:13.439Z,57.11
2018-10-07T18:16:43.066Z,57.60
2018-10-07T18:19:12.585Z,57.71
2018-10-07T18:21:42.187Z,57.21
2018-10-07T18:24:11.919Z,57.71
2018-10-07T18:26:41.467Z,57.05
2018-10-07T18:29:11.173Z,57.51
2018-10-07T18:31:40.789Z,57.41
2018-10-07T18:34:10.461Z,57.72
2018-10-07T18:36:40.116Z,58.18
2018-10-07T18:39:10.073Z,58.29
2018-10-07T18:41:40.319Z,58.91
2018-10-07T18:44:09.879Z,58.88
2018-10-07T18:46:39.397Z,59.26
2018-10-07T18:49:08.969Z,58.78
2018-10-07T18:51:38.659Z,59.44
2018-10-07T18:54:08.218Z,59.14
2018-10-07T18:56:38.021Z,59.56
2018-10-07T18:59:07.535Z,59.68
2018-10-07T19:01:37.066Z,59.37
2018-10-07T19:04:07.109Z,59.87
2018-10-07T19:06:36.963Z,59.82
2018-10-07T19:09:10.039Z,60.27
2018-10-07T19:11:39.634Z,60.35
2018-10-07T19:14:09.225Z,60.67
2018-10-07T19:16:38.927Z,61.09
2018-10-07T19:19:08.422Z,61.60
2018-10-07T19:21:37.913Z,61.13
2018-10-07T19:24:07.782Z,61.06
2018-10-07T19:26:37.284Z,61.28
2018-10-07T19:29:06.863Z,61.11
2018-10-07T19:31:36.366Z,60.61
2018-10-07T19:34:06.208Z,61.30
2018-10-07T19:36:35.747Z,61.11
2018-10-07T19:39:09.155Z,61.03
2018-10-07T19:41:38.852Z,61.37
2018-10-07T19:44:08.419Z,61.89
2018-10-07T19:46:38.289Z,61.55
2018-10-07T19:49:07.831Z,61.37
2018-10-07T19:51:37.384Z,61.94
2018-10-07T19:54:10.145Z,62.39
2018-10-07T19:56:39.698Z,62.02
2018-10-07T19:59:09.142Z,62.62
2018-10-07T20:01:38.640Z,62.40
2018-10-07T20:04:08.667Z,62.15
2018-10-07T20:06:38.588Z,62.26
2018-10-07T20:09:10.343Z,62.65
2018-10-07T20:11:39.911Z,62.69
2018-10-07T20:14:09.448Z,62.89
2018-10-07T20:16:39.039Z,62.94
2018-10-07T20:19:08.856Z,63.72
2018-10-07T20:21:38.510Z,64.00
2018-10-07T20:24:08.261Z,63.98
2018-10-07T20:26:37.854Z,64.40
2018-10-07T20:29:07.715Z,64.41
2018-10-07T20:31:37.253Z,64.61
2018-10-07T20:34:06.744Z,64.84
2018-10-07T20:36:36.251Z,64.29
2018-10-07T20:39:09.028Z,63.86
2018-10-07T20:41:39.078Z,63.96
2018-10-07T20:44:08.861Z,64.05
2018-10-07T20:46:38.556Z,64.36
2018-10-07T20:49:08.099Z,64.44
2018-10-07T20:51:37.626Z,64.84
2018-10-07T20:54:07.526Z,65.08
2018-10-07T20:56:37.051Z,64.84
2018-10-07T20:59:06.760Z,64.59
2018-10-07T21:01:36.247Z,65.46
2018-10-07T21:04:06.307Z,64.95
2018-10-07T21:06:35.851Z,65.22
2018-10-07T21:09:08.762Z,64.80
2018-10-07T21:11:38.601Z,65.07
2018-10-07T21:14:08.126Z,65.19
2018-10-07T21:16:38.063Z,65.04
2018-10-07T21:19:07.583Z,65.34
2018-10-07T21:21:37.426Z,65.39
2018-10-07T21:24:06.987Z,65.66
2018-10-07T21:26:36.756Z,66.17
2018-10-07T21:29:06.562Z,66.53
2018-10-07T21:31:36.098Z,66.73
2018-10-07T21:34:05.600Z,66.84
2018-10-07T21:36:35.093Z,66.97
2018-10-07T21:39:06.069Z,66.74
2018-10-07T21:41:35.685Z,66.60
2018-10-07T21:44:05.695Z,66.45
2018-10-07T21:46:36.169Z,66.63
2018-10-07T21:49:06.463Z,66.83
2018-10-07T21:51:35.990Z,66.83
2018-10-07T21:54:05.483Z,66.37
2018-10-07T21:56:34.985Z,67.05
2018-10-07T21:59:04.470Z,67.10
2018-10-07T22:01:34.123Z,66.89
2018-10-07T22:04:03.960Z,67.87
2018-10-07T22:06:33.802Z,67.29
2018-10-07T22:09:04.209Z,67.57
2018-10-07T22:11:33.798Z,67.75
2018-10-07T22:14:03.648Z,67.80
2018-10-07T22:16:33.170Z,68.36
2018-10-07T22:19:02.719Z,68.44
2018-10-07T22:21:32.247Z,68.57
2018-10-07T22:24:01.741Z,68.80
2018-10-07T22:26:31.228Z,68.63
2018-10-07T22:29:00.931Z,68.70
2018-10-07T22:31:30.428Z,67.97
2018-10-07T22:33:59.921Z,68.90
2018-10-07T22:36:29.663Z,68.35
2018-10-07T22:38:59.505Z,68.65
2018-10-07T22:41:29.018Z,68.53
2018-10-07T22:43:58.476Z,68.92
2018-10-07T22:46:27.979Z,68.74
2018-10-07T22:48:57.484Z,69.08
2018-10-07T22:54:24.542Z,69.68
2018-10-07T22:56:54.079Z,69.89
2018-10-07T22:59:23.647Z,69.26
2018-10-07T23:01:53.195Z,68.58
2018-10-07T23:04:22.682Z,69.46
2018-10-07T23:06:52.487Z,69.50
2018-10-07T23:09:21.975Z,69.19
2018-10-07T23:11:51.488Z,69.67
2018-10-07T23:14:20.992Z,68.69
2018-10-07T23:16:50.827Z,69.60
2018-10-07T23:19:20.353Z,69.72
2018-10-07T23:21:49.834Z,70.02
2018-10-07T23:24:19.394Z,69.96
2018-10-07T23:26:48.880Z,69.13
2018-10-07T23:32:15.487Z,70.28
2018-10-07T23:34:45.395Z,70.05
2018-10-07T23:37:14.919Z,69.96
2018-10-07T23:39:44.751Z,70.20
2018-10-07T23:42:14.337Z,69.83
2018-10-07T23:44:43.821Z,69.97
2018-10-07T23:47:13.339Z,70.49
2018-10-07T23:49:42.852Z,70.27
2018-10-07T23:52:12.406Z,70.31
2018-10-07T23:54:42.132Z,70.58
2018-10-07T23:57:11.754Z,70.43
2018-10-07T23:59:41.246Z,70.54
